Time;durP1;ratioP1;P1;durP2;ratioP2;P2;SDS_P1;SDS_P2;PMS_P1;PMS_P2;Temp;Humidity;BMP_temperature;BMP_pressure;BME280_temperature;BME280_humidity;BME280_pressure;Samples;Min_cycle;Max_cycle;Signal;HPM_P1;HPM_P2
2022/05/16 00:00:56;;;;;;;7.78;2.58;;;10.20;99.90;;;;;;5053687;28;20036;-53
2022/05/16 00:04:21;;;;;;;5.25;2.30;;;10.20;99.90;;;;;;5047058;28;20033;-53
2022/05/16 00:07:47;;;;;;;7.32;2.10;;;10.10;99.90;;;;;;5054975;28;20116;-53
2022/05/16 00:11:12;;;;;;;6.03;2.05;;;10.10;99.90;;;;;;5051562;28;20044;-50
2022/05/16 00:13:58;;;;;;;9.63;2.28;;;10.10;99.90;;;;;;5025421;28;20584;-53
2022/05/16 00:16:23;;;;;;;7.72;2.10;;;10.10;99.90;;;;;;5040622;28;20033;-52
2022/05/16 00:18:51;;;;;;;7.18;2.13;;;10.10;99.90;;;;;;5037721;28;20079;-52
2022/05/16 00:21:17;;;;;;;6.18;2.53;;;10.00;99.90;;;;;;5054778;28;20025;-53
2022/05/16 00:23:42;;;;;;;5.47;2.55;;;9.90;99.90;;;;;;5038520;28;20029;-54
2022/05/16 00:26:08;;;;;;;6.05;2.17;;;9.90;99.90;;;;;;5044435;28;20039;-54
2022/05/16 00:28:33;;;;;;;6.10;2.22;;;9.80;99.90;;;;;;5069002;28;20023;-54
2022/05/16 00:30:59;;;;;;;4.50;2.55;;;9.80;99.90;;;;;;5053935;28;20020;-53
2022/05/16 00:33:24;;;;;;;6.75;2.58;;;9.80;99.90;;;;;;5069155;28;20388;-56
2022/05/16 00:35:50;;;;;;;6.05;2.33;;;9.80;99.90;;;;;;5052927;28;20111;-52
2022/05/16 00:38:15;;;;;;;4.82;2.25;;;9.80;99.90;;;;;;5069178;28;20038;-56
2022/05/16 00:40:41;;;;;;;5.20;2.25;;;9.80;99.90;;;;;;5051527;28;20033;-53
2022/05/16 00:43:09;;;;;;;8.13;2.50;;;9.80;99.90;;;;;;5069337;28;20021;-54
2022/05/16 00:45:35;;;;;;;6.07;2.38;;;9.70;99.90;;;;;;5050133;28;20073;-52
2022/05/16 00:48:01;;;;;;;5.85;2.42;;;9.60;99.90;;;;;;5069106;28;20032;-54
2022/05/16 00:50:28;;;;;;;6.10;2.38;;;9.60;99.90;;;;;;5049296;28;20040;-50
2022/05/16 00:52:55;;;;;;;4.65;2.30;;;9.60;99.90;;;;;;5069111;28;20037;-55
2022/05/16 00:55:29;;;;;;;4.13;2.67;;;9.60;99.90;;;;;;5048399;28;20041;-51
2022/05/16 00:58:03;;;;;;;8.07;2.55;;;9.50;99.90;;;;;;5068941;28;20020;-55
2022/05/16 01:00:35;;;;;;;5.68;2.20;;;9.40;99.90;;;;;;5036066;28;20029;-52
2022/05/16 01:06:08;;;;;;;5.28;1.92;;;9.40;99.90;;;;;;5041003;28;20043;-55
2022/05/16 01:08:37;;;;;;;3.67;1.83;;;9.30;99.90;;;;;;5068575;28;20031;-52
2022/05/16 01:11:09;;;;;;;7.93;2.45;;;9.30;99.90;;;;;;5053195;28;20583;-56
2022/05/16 01:13:35;;;;;;;5.88;2.00;;;9.30;99.90;;;;;;5066587;28;20512;-55
2022/05/16 01:16:02;;;;;;;7.82;2.40;;;9.30;99.90;;;;;;5049175;28;20052;-53
2022/05/16 01:18:28;;;;;;;9.95;3.47;;;9.20;99.90;;;;;;5066485;28;20035;-56
2022/05/16 01:21:11;;;;;;;4.95;1.92;;;9.20;99.90;;;;;;5049240;28;20111;-55
2022/05/16 01:24:26;;;;;;;6.47;2.50;;;9.20;99.90;;;;;;5041432;28;20040;-54
2022/05/16 01:28:04;;;;;;;4.38;2.30;;;9.20;99.90;;;;;;5028426;28;20103;-55
2022/05/16 01:31:26;;;;;;;6.85;2.35;;;9.10;99.90;;;;;;5056093;28;20032;-53
2022/05/16 01:34:52;;;;;;;9.13;2.67;;;9.10;99.90;;;;;;5058890;28;20411;-55
2022/05/16 01:38:22;;;;;;;4.57;1.98;;;9.00;99.90;;;;;;5055127;28;20039;-56
2022/05/16 01:41:48;;;;;;;6.28;2.40;;;8.90;99.90;;;;;;5028401;28;20477;-54
2022/05/16 01:45:14;;;;;;;6.20;2.28;;;8.90;99.90;;;;;;5060139;28;20040;-56
2022/05/16 01:48:39;;;;;;;5.72;2.20;;;8.80;99.90;;;;;;5062671;28;20071;-54
2022/05/16 01:52:04;;;;;;;6.47;2.20;;;8.70;99.90;;;;;;5028366;28;20037;-54
2022/05/16 01:55:30;;;;;;;3.38;1.83;;;8.60;99.90;;;;;;5056955;28;20143;-52
2022/05/16 01:58:55;;;;;;;4.13;2.08;;;8.50;99.90;;;;;;5062595;28;20094;-50
2022/05/16 02:02:20;;;;;;;3.67;2.28;;;8.50;99.90;;;;;;5062392;28;20546;-51
2022/05/16 02:05:46;;;;;;;4.68;2.08;;;8.40;99.90;;;;;;5056818;28;20036;-56
2022/05/16 02:09:11;;;;;;;7.50;2.42;;;8.40;99.90;;;;;;5047444;28;20028;-53
2022/05/16 02:12:36;;;;;;;7.72;2.85;;;8.40;99.90;;;;;;5028084;28;20049;-53
2022/05/16 02:16:02;;;;;;;6.85;2.10;;;8.40;99.90;;;;;;5056600;28;20040;-52
2022/05/16 02:19:27;;;;;;;5.63;2.22;;;8.30;99.90;;;;;;5043452;28;20072;-51
2022/05/16 02:26:17;;;;;;;5.13;1.88;;;8.30;99.90;;;;;;5054615;28;20082;-54
2022/05/16 02:29:42;;;;;;;5.95;2.13;;;8.30;99.90;;;;;;5060859;28;20036;-55
2022/05/16 02:33:07;;;;;;;4.28;2.15;;;8.30;99.90;;;;;;5066021;28;20028;-53
2022/05/16 02:36:33;;;;;;;6.07;2.33;;;8.30;99.90;;;;;;5031858;28;20116;-56
2022/05/16 02:39:58;;;;;;;6.40;2.70;;;8.30;99.90;;;;;;5065185;28;20039;-53
2022/05/16 02:43:23;;;;;;;3.65;2.03;;;8.30;99.90;;;;;;5065844;28;20542;-53
2022/05/16 02:46:49;;;;;;;7.43;2.60;;;8.20;99.90;;;;;;5031318;28;20049;-54
2022/05/16 02:50:15;;;;;;;8.13;2.60;;;8.30;99.90;;;;;;5060166;28;20463;-53
2022/05/16 02:53:39;;;;;;;5.95;2.58;;;8.30;99.90;;;;;;5050921;28;20114;-54
2022/05/16 02:57:05;;;;;;;5.90;2.85;;;8.30;99.90;;;;;;5067474;28;20555;-54
2022/05/16 03:00:30;;;;;;;5.93;2.50;;;8.20;99.90;;;;;;5053808;28;20033;-54
2022/05/16 03:03:56;;;;;;;5.55;3.08;;;8.20;99.90;;;;;;5067227;28;20043;-54
2022/05/16 03:07:21;;;;;;;6.05;2.15;;;8.20;99.90;;;;;;5067188;28;20032;-51
2022/05/16 03:10:46;;;;;;;7.38;2.80;;;8.20;99.90;;;;;;5063050;28;20234;-62
2022/05/16 03:14:12;;;;;;;4.32;2.60;;;8.20;99.90;;;;;;5054567;28;20570;-62
2022/05/16 03:16:57;;;;;;;7.57;2.53;;;8.20;99.90;;;;;;5059710;28;20040;-62
2022/05/16 03:19:23;;;;;;;9.98;2.30;;;8.10;99.90;;;;;;5049623;28;20033;-63
2022/05/16 03:21:48;;;;;;;5.72;2.53;;;8.20;99.90;;;;;;5070243;28;20032;-63
2022/05/16 03:24:14;;;;;;;4.47;2.28;;;8.20;99.90;;;;;;5049597;28;20454;-62
2022/05/16 03:26:40;;;;;;;5.57;2.60;;;8.20;99.90;;;;;;5069916;28;20039;-63
2022/05/16 03:29:13;;;;;;;7.50;2.65;;;8.30;99.90;;;;;;5048756;28;20476;-63
2022/05/16 03:31:42;;;;;;;6.30;2.45;;;8.30;99.90;;;;;;5030775;28;20068;-63
2022/05/16 03:34:09;;;;;;;8.27;2.15;;;8.40;99.90;;;;;;5052067;28;20041;-62
2022/05/16 03:36:35;;;;;;;6.20;2.47;;;8.40;99.90;;;;;;5070152;28;20021;-63
2022/05/16 03:41:45;;;;;;;5.22;2.45;;;8.40;99.90;;;;;;5030780;28;20441;-63
2022/05/16 03:44:10;;;;;;;4.07;2.20;;;8.50;99.90;;;;;;5050748;28;20029;-62
2022/05/16 03:46:36;;;;;;;7.25;2.40;;;8.60;99.90;;;;;;5069714;28;20086;-63
2022/05/16 03:49:02;;;;;;;4.28;2.17;;;8.60;99.90;;;;;;5049196;28;20102;-62
2022/05/16 03:51:27;;;;;;;7.55;2.05;;;8.70;99.90;;;;;;5069430;28;20021;-62
2022/05/16 03:53:53;;;;;;;3.67;2.45;;;8.70;99.90;;;;;;5048907;28;20116;-62
2022/05/16 03:56:22;;;;;;;6.70;2.33;;;8.90;99.90;;;;;;5069410;28;20480;-63
2022/05/16 03:59:27;;;;;;;5.50;1.80;;;10.00;99.90;;;;;;5041987;28;20120;-65
2022/05/16 04:02:53;;;;;;;7.93;2.35;;;11.50;99.90;;;;;;5039858;28;20119;-65
2022/05/16 04:06:18;;;;;;;5.28;1.90;;;13.50;91.10;;;;;;5062422;28;20064;-65
2022/05/16 04:09:43;;;;;;;6.13;2.40;;;15.10;69.40;;;;;;5029431;28;20037;-64
2022/05/16 04:12:29;;;;;;;6.35;2.17;;;16.50;54.00;;;;;;5047807;28;20070;-64
2022/05/16 04:14:54;;;;;;;4.10;2.00;;;17.60;53.90;;;;;;5070276;28;20021;-64
2022/05/16 04:17:20;;;;;;;6.13;2.00;;;18.40;47.40;;;;;;5049791;28;20357;-64
2022/05/16 04:19:45;;;;;;;3.20;1.80;;;19.10;42.30;;;;;;5069954;28;20036;-62
2022/05/16 04:22:12;;;;;;;3.28;1.65;;;19.90;40.30;;;;;;5048563;28;20025;-60
2022/05/16 04:24:38;;;;;;;4.43;1.75;;;20.40;33.00;;;;;;5070112;28;20388;-61
2022/05/16 04:27:04;;;;;;;4.78;2.00;;;20.90;29.40;;;;;;5050466;28;20029;-61
2022/05/16 04:29:29;;;;;;;2.22;1.70;;;21.40;28.70;;;;;;5048224;28;20440;-62
2022/05/16 04:31:55;;;;;;;3.90;2.15;;;21.80;28.50;;;;;;5068852;28;20037;-61
2022/05/16 04:34:20;;;;;;;5.28;2.20;;;22.10;27.20;;;;;;5048403;28;20094;-61
2022/05/16 04:36:46;;;;;;;4.43;2.15;;;22.60;25.10;;;;;;5068998;28;20025;-62
2022/05/16 04:39:51;;;;;;;2.05;1.55;;;22.90;20.10;;;;;;5048177;28;20033;-62
2022/05/16 04:43:17;;;;;;;4.47;1.75;;;23.50;14.60;;;;;;5063040;28;20063;-61
2022/05/16 04:46:45;;;;;;;6.50;1.88;;;24.40;13.20;;;;;;5028434;28;20037;-61
2022/05/16 04:50:11;;;;;;;3.70;1.70;;;24.90;12.70;;;;;;5060747;28;20032;-62
2022/05/16 04:53:36;;;;;;;5.25;2.05;;;25.20;10.10;;;;;;5049513;28;20036;-62
2022/05/16 04:57:01;;;;;;;4.05;1.88;;;25.60;13.00;;;;;;5057591;28;20047;-62
2022/05/16 05:00:27;;;;;;;4.70;1.92;;;26.30;8.40;;;;;;5046574;28;20041;-61
2022/05/16 05:03:52;;;;;;;2.40;1.50;;;27.20;7.40;;;;;;5043944;28;20063;-61
2022/05/16 05:07:17;;;;;;;3.65;1.50;;;28.10;8.40;;;;;;5063127;28;20028;-60
2022/05/16 05:17:31;;;;;;;5.15;1.85;;;27.50;4.50;;;;;;5041893;28;20182;-60
2022/05/16 05:20:56;;;;;;;6.20;1.85;;;27.70;3.80;;;;;;5057137;28;20025;-59
2022/05/16 05:24:22;;;;;;;5.47;1.70;;;28.20;3.00;;;;;;5056966;28;20100;-60
2022/05/16 05:27:48;;;;;;;4.10;2.28;;;26.80;4.80;;;;;;5052900;28;20109;-60
2022/05/16 05:31:13;;;;;;;5.78;2.33;;;27.40;3.90;;;;;;5056668;28;20028;-60
2022/05/16 05:34:38;;;;;;;6.13;1.90;;;26.70;3.60;;;;;;5028144;28;20386;-59
2022/05/16 05:38:03;;;;;;;6.00;2.00;;;28.60;2.60;;;;;;5042820;28;20176;-60
2022/05/16 05:41:29;;;;;;;6.25;2.00;;;28.90;2.10;;;;;;5056434;28;20511;-59
2022/05/16 05:44:54;;;;;;;4.07;2.00;;;30.40;1.00;;;;;;5059508;28;20036;-60
2022/05/16 05:48:19;;;;;;;3.67;1.80;;;31.00;1.10;;;;;;5040799;28;20037;-60
2022/05/16 05:51:45;;;;;;;3.05;1.73;;;31.50;1.00;;;;;;5054873;28;20033;-60
2022/05/16 05:55:10;;;;;;;3.42;1.42;;;31.10;1.00;;;;;;5051605;28;20177;-60
2022/05/16 05:58:36;;;;;;;4.10;1.98;;;30.70;1.00;;;;;;5047986;28;20032;-60
2022/05/16 06:01:54;;;;;;;5.25;1.80;;;28.60;1.00;;;;;;5060520;28;20476;-60
2022/05/16 06:05:00;;;;;;;4.70;1.60;;;28.50;1.20;;;;;;5031014;28;20041;-59
2022/05/16 06:08:25;;;;;;;5.45;2.25;;;29.20;1.00;;;;;;5066024;28;20068;-60
2022/05/16 06:11:51;;;;;;;5.00;1.90;;;29.20;1.00;;;;;;5031548;28;20101;-60
2022/05/16 06:15:16;;;;;;;4.32;1.90;;;29.00;1.00;;;;;;5059991;28;20056;-60
2022/05/16 06:18:41;;;;;;;3.92;2.25;;;29.50;1.00;;;;;;5048261;28;20125;-60
2022/05/16 06:22:07;;;;;;;5.30;2.10;;;31.50;1.00;;;;;;5060469;28;20094;-60
2022/05/16 06:25:32;;;;;;;3.80;1.58;;;31.40;1.00;;;;;;5060331;28;20071;-60
2022/05/16 06:28:57;;;;;;;5.25;1.58;;;30.70;1.00;;;;;;5046445;28;20029;-60
2022/05/16 06:32:24;;;;;;;5.80;2.40;;;29.90;1.00;;;;;;5031835;28;20116;-60
2022/05/16 06:35:48;;;;;;;5.15;1.52;;;29.10;1.00;;;;;;5053560;28;20083;-60
2022/05/16 06:39:14;;;;;;;3.90;1.67;;;30.30;1.00;;;;;;5044218;28;20037;-60
2022/05/16 06:42:39;;;;;;;5.30;1.83;;;31.50;1.00;;;;;;5058196;28;20044;-60
2022/05/16 06:46:04;;;;;;;3.40;1.65;;;32.20;1.00;;;;;;5056742;28;20195;-60
2022/05/16 06:49:30;;;;;;;3.67;1.20;;;33.20;1.00;;;;;;5047344;28;20299;-59
2022/05/16 06:52:55;;;;;;;3.75;1.63;;;33.50;1.00;;;;;;5063092;28;20036;-60
2022/05/16 06:56:21;;;;;;;4.07;1.60;;;32.40;1.00;;;;;;5031243;28;20382;-60
2022/05/16 06:59:46;;;;;;;4.32;1.70;;;32.40;1.00;;;;;;5066264;28;20040;-59
2022/05/16 07:03:12;;;;;;;4.80;1.70;;;32.10;1.00;;;;;;5057673;28;20028;-61
2022/05/16 07:06:37;;;;;;;3.45;1.55;;;31.20;1.00;;;;;;5030946;28;20528;-60
2022/05/16 07:10:02;;;;;;;4.40;1.90;;;31.60;1.00;;;;;;5059181;28;20232;-60
2022/05/16 07:13:28;;;;;;;3.90;1.90;;;32.70;1.00;;;;;;5064948;28;20051;-60
2022/05/16 07:16:53;;;;;;;4.50;1.83;;;32.80;1.00;;;;;;5065017;28;20078;-60
2022/05/16 07:20:18;;;;;;;2.08;1.20;;;33.40;1.00;;;;;;5064939;28;20037;-60
2022/05/16 07:23:45;;;;;;;2.78;1.50;;;33.40;1.00;;;;;;5048576;28;20029;-60
2022/05/16 07:30:33;;;;;;;2.78;1.55;;;33.30;1.00;;;;;;5064432;28;20063;-60
2022/05/16 07:34:00;;;;;;;3.58;1.60;;;33.10;1.00;;;;;;5045233;28;20043;-60
2022/05/16 07:37:24;;;;;;;4.15;1.75;;;32.80;1.00;;;;;;5058591;28;20028;-60
2022/05/16 07:40:49;;;;;;;4.65;1.77;;;33.80;1.00;;;;;;5064157;28;20087;-60
2022/05/16 07:44:15;;;;;;;7.72;1.70;;;33.20;1.00;;;;;;5056656;28;20029;-60
2022/05/16 07:47:40;;;;;;;2.90;1.63;;;34.10;1.00;;;;;;5030953;28;20045;-60
2022/05/16 07:51:05;;;;;;;3.08;1.50;;;34.60;1.00;;;;;;5051519;28;20420;-60
2022/05/16 07:54:31;;;;;;;4.05;1.40;;;33.20;1.00;;;;;;5045886;28;20052;-59
2022/05/16 07:57:56;;;;;;;3.72;1.45;;;32.70;1.00;;;;;;5056694;28;20557;-59
2022/05/16 08:01:21;;;;;;;5.20;2.13;;;33.70;1.00;;;;;;5044737;28;20033;-60
2022/05/16 08:04:47;;;;;;;4.43;1.95;;;34.30;1.00;;;;;;5065162;28;20040;-60
2022/05/16 08:11:36;;;;;;;3.53;1.80;;;34.90;1.00;;;;;;5050834;28;20075;-60
2022/05/16 08:15:01;;;;;;;4.35;1.67;;;34.10;1.00;;;;;;5057918;28;20049;-60
2022/05/16 08:18:27;;;;;;;2.90;1.50;;;34.50;1.00;;;;;;5063970;28;20033;-60
2022/05/16 08:21:52;;;;;;;4.53;1.63;;;34.60;1.00;;;;;;5063676;28;20411;-60
2022/05/16 08:25:17;;;;;;;3.08;1.52;;;34.70;1.00;;;;;;5065624;28;20039;-60
2022/05/16 08:28:43;;;;;;;1.85;1.17;;;34.50;1.00;;;;;;5046468;28;20481;-60
2022/05/16 08:32:08;;;;;;;4.13;2.00;;;33.60;1.00;;;;;;5058107;28;20033;-60
2022/05/16 08:35:33;;;;;;;4.78;1.55;;;33.70;1.00;;;;;;5058413;28;20565;-59
2022/05/16 08:42:32;;;;;;;2.67;1.70;;;34.80;1.00;;;;;;5029301;28;20037;-60
2022/05/16 08:45:57;;;;;;;3.08;1.50;;;34.10;1.00;;;;;;5063176;28;20427;-60
2022/05/16 08:49:26;;;;;;;4.75;2.05;;;33.90;1.00;;;;;;5057550;28;20093;-60
2022/05/16 08:53:03;;;;;;;4.28;1.55;;;34.60;1.00;;;;;;5055850;28;20032;-59
2022/05/16 08:56:29;;;;;;;3.88;1.40;;;35.80;1.00;;;;;;5018764;28;20057;-59
2022/05/16 08:59:54;;;;;;;4.25;1.83;;;35.30;1.00;;;;;;5060937;28;20695;-59
2022/05/16 09:03:19;;;;;;;4.22;1.88;;;34.70;1.00;;;;;;5049057;28;20033;-60
2022/05/16 09:06:31;;;;;;;3.30;1.48;;;34.20;1.00;;;;;;5057641;28;20043;-59
2022/05/16 09:10:05;;;;;;;3.53;2.00;;;35.00;1.00;;;;;;5027084;28;20029;-60
2022/05/16 09:13:32;;;;;;;5.45;1.67;;;35.80;1.00;;;;;;5062777;28;20127;-60
2022/05/16 09:16:52;;;;;;;3.35;1.27;;;35.40;1.00;;;;;;5057098;28;20719;-59
2022/05/16 09:20:15;;;;;;;3.20;1.83;;;34.80;1.00;;;;;;5051337;28;20438;-60
2022/05/16 09:23:59;;;;;;;2.28;1.52;;;35.30;1.00;;;;;;5045611;28;20032;-60
2022/05/16 09:27:10;;;;;;;2.83;1.60;;;35.30;1.00;;;;;;5050339;28;20064;-60
2022/05/16 09:30:35;;;;;;;3.53;1.60;;;34.50;1.00;;;;;;5051588;28;20110;-59
2022/05/16 09:34:00;;;;;;;4.88;1.63;;;33.40;1.00;;;;;;5050385;28;20041;-60
2022/05/16 09:37:26;;;;;;;2.63;1.20;;;33.00;1.00;;;;;;5064515;28;20414;-60
2022/05/16 09:40:54;;;;;;;3.65;1.35;;;33.70;1.00;;;;;;5056875;28;20032;-59
2022/05/16 09:44:25;;;;;;;2.70;1.33;;;34.50;1.00;;;;;;5055802;28;20040;-60
2022/05/16 09:47:29;;;;;;;5.20;1.30;;;35.60;1.00;;;;;;5051226;28;20043;-60
2022/05/16 09:50:57;;;;;;;2.85;1.55;;;35.20;1.00;;;;;;5053439;28;20094;-60
2022/05/16 09:54:32;;;;;;;3.95;1.88;;;34.30;1.00;;;;;;5047207;28;20049;-60
2022/05/16 09:58:00;;;;;;;3.22;1.67;;;34.40;1.00;;;;;;5054905;28;20483;-59
2022/05/16 10:01:25;;;;;;;3.13;1.67;;;32.30;1.00;;;;;;5043557;28;20028;-59
2022/05/16 10:04:52;;;;;;;3.45;1.67;;;29.90;1.00;;;;;;5064412;28;20040;-60
2022/05/16 10:08:22;;;;;;;3.38;1.42;;;28.30;1.00;;;;;;5060823;28;20088;-59
2022/05/16 10:11:48;;;;;;;3.85;1.42;;;26.90;1.00;;;;;;5062865;28;20056;-59
2022/05/16 10:15:13;;;;;;;5.03;1.67;;;26.20;1.60;;;;;;5055360;28;20040;-59
2022/05/16 10:18:38;;;;;;;3.55;1.23;;;25.50;1.20;;;;;;5045500;28;20062;-58
2022/05/16 10:21:32;;;;;;;3.38;1.70;;;25.30;2.30;;;;;;5048276;28;20512;-63
2022/05/16 10:23:59;;;;;;;3.55;1.58;;;24.80;2.70;;;;;;5026570;28;20393;-62
2022/05/16 10:26:30;;;;;;;2.88;1.38;;;24.80;2.60;;;;;;5063764;28;20032;-62
2022/05/16 10:29:06;;;;;;;5.10;1.63;;;24.60;3.20;;;;;;5026691;28;20079;-63
2022/05/16 10:34:39;;;;;;;3.30;1.67;;;24.60;3.50;;;;;;5026423;28;20451;-62
2022/05/16 10:37:06;;;;;;;3.00;1.40;;;24.40;3.90;;;;;;5040566;28;20032;-63
2022/05/16 10:39:35;;;;;;;4.35;1.65;;;24.60;3.80;;;;;;5067608;28;20308;-63
2022/05/16 10:42:07;;;;;;;2.60;1.23;;;24.70;3.50;;;;;;5048519;28;20111;-63
2022/05/16 10:44:44;;;;;;;9.57;1.65;;;24.50;3.10;;;;;;5030185;28;20033;-64
2022/05/16 10:47:25;;;;;;;5.03;1.48;;;24.50;4.20;;;;;;5044722;28;20354;-63
2022/05/16 10:49:57;;;;;;;4.57;1.85;;;24.40;3.80;;;;;;5030182;28;20036;-63
2022/05/16 10:52:34;;;;;;;5.40;1.50;;;24.40;3.50;;;;;;5046663;28;20025;-63
2022/05/16 10:55:00;;;;;;;4.80;1.55;;;24.20;4.10;;;;;;5069511;28;20388;-62
2022/05/16 10:57:44;;;;;;;6.40;1.60;;;23.90;4.80;;;;;;5048483;28;20028;-63
2022/05/16 11:00:11;;;;;;;3.80;1.30;;;24.00;5.10;;;;;;5035446;28;20195;-62
2022/05/16 11:02:59;;;;;;;4.93;1.80;;;24.00;5.10;;;;;;5029903;28;20116;-63
2022/05/16 11:05:58;;;;;;;3.78;1.50;;;23.90;5.40;;;;;;5066275;28;20021;-63
2022/05/16 11:08:32;;;;;;;2.83;1.45;;;23.80;5.50;;;;;;5069902;28;20025;-63
2022/05/16 11:11:25;;;;;;;1.95;1.35;;;23.80;4.80;;;;;;5042948;28;20104;-62
2022/05/16 11:14:15;;;;;;;5.00;2.15;;;23.70;5.00;;;;;;5029591;28;20252;-62
2022/05/16 11:16:41;;;;;;;4.88;1.50;;;23.40;4.90;;;;;;5054000;28;20025;-63
2022/05/16 11:19:29;;;;;;;1.67;1.35;;;23.30;5.50;;;;;;5068890;28;20427;-63
2022/05/16 11:22:21;;;;;;;3.42;1.40;;;23.30;6.00;;;;;;5047435;28;20044;-63
2022/05/16 11:24:58;;;;;;;2.13;1.60;;;23.20;5.90;;;;;;5029619;28;20035;-63
2022/05/16 11:27:42;;;;;;;3.10;1.70;;;23.20;6.70;;;;;;5046230;28;20057;-63
2022/05/16 11:30:15;;;;;;;2.60;1.63;;;23.20;5.80;;;;;;5068502;28;20040;-63
2022/05/16 11:32:58;;;;;;;2.85;1.50;;;23.20;5.20;;;;;;5069605;28;20028;-63
2022/05/16 11:35:41;;;;;;;3.10;1.50;;;23.20;4.20;;;;;;5030910;28;20037;-63
2022/05/16 11:38:33;;;;;;;3.90;1.95;;;23.20;4.70;;;;;;5069228;28;20055;-63
2022/05/16 11:41:14;;;;;;;1.65;1.50;;;23.20;5.70;;;;;;5040572;28;20193;-63
2022/05/16 11:43:49;;;;;;;2.97;1.70;;;23.30;5.90;;;;;;5069185;28;20090;-63
2022/05/16 11:46:23;;;;;;;4.18;1.80;;;23.20;5.50;;;;;;5055586;28;20036;-63
2022/05/16 11:49:14;;;;;;;4.95;1.83;;;23.20;5.90;;;;;;5029162;28;20452;-63
2022/05/16 11:52:09;;;;;;;5.88;1.52;;;23.00;5.80;;;;;;5052455;28;20508;-63
2022/05/16 11:54:44;;;;;;;3.38;1.73;;;23.10;6.10;;;;;;5048093;28;20121;-65
2022/05/16 12:00:32;;;;;;;4.22;1.45;;;23.30;5.20;;;;;;5044620;28;20041;-64
2022/05/16 12:03:20;;;;;;;3.80;1.23;;;23.40;6.50;;;;;;5029325;28;20041;-65
2022/05/16 12:05:52;;;;;;;2.60;1.35;;;23.40;5.60;;;;;;5069069;28;20387;-63
2022/05/16 12:08:31;;;;;;;7.45;1.92;;;23.60;5.70;;;;;;5029213;28;20094;-62
2022/05/16 12:11:03;;;;;;;2.95;1.30;;;23.80;5.50;;;;;;5059509;28;20072;-63
2022/05/16 12:13:34;;;;;;;3.33;1.80;;;23.80;5.90;;;;;;5065937;28;20547;-63
2022/05/16 12:16:12;;;;;;;2.97;1.73;;;23.70;5.10;;;;;;5068703;28;20116;-63
2022/05/16 12:19:33;;;;;;;5.20;1.80;;;23.60;5.70;;;;;;5040013;28;20031;-63
2022/05/16 12:22:38;;;;;;;2.63;1.40;;;23.60;4.60;;;;;;5028517;28;20033;-63
2022/05/16 12:25:32;;;;;;;4.97;1.60;;;23.60;5.00;;;;;;5053480;28;20444;-63
2022/05/16 12:28:12;;;;;;;3.10;1.60;;;23.70;5.20;;;;;;5028772;28;20481;-63
2022/05/16 12:31:38;;;;;;;5.32;1.70;;;23.60;4.90;;;;;;5057047;28;20047;-63
2022/05/16 12:34:29;;;;;;;4.10;1.45;;;23.80;4.80;;;;;;5048401;28;20519;-63
2022/05/16 12:37:55;;;;;;;3.33;1.50;;;24.00;4.90;;;;;;5028566;28;20497;-63
2022/05/16 12:41:05;;;;;;;3.50;1.42;;;23.90;3.80;;;;;;5064634;28;20079;-63
2022/05/16 12:44:17;;;;;;;2.53;1.60;;;23.90;4.40;;;;;;5037721;28;20043;-63
2022/05/16 12:47:49;;;;;;;3.88;1.70;;;23.80;5.00;;;;;;5048265;28;20063;-62
2022/05/16 12:50:52;;;;;;;3.88;1.60;;;23.80;5.60;;;;;;5028184;28;20025;-63
2022/05/16 12:54:16;;;;;;;2.05;1.27;;;23.90;5.30;;;;;;5028043;28;20598;-63
2022/05/16 12:57:22;;;;;;;3.85;1.20;;;24.10;5.20;;;;;;5050109;28;20048;-63
2022/05/16 13:00:46;;;;;;;8.00;1.55;;;24.00;4.60;;;;;;5043147;28;20634;-62
2022/05/16 13:04:11;;;;;;;3.50;1.63;;;23.90;4.80;;;;;;5055942;28;20234;-63
2022/05/16 13:07:45;;;;;;;2.55;1.48;;;23.80;3.80;;;;;;5043188;28;20071;-63
2022/05/16 13:11:45;;;;;;;1.40;1.30;;;23.80;4.10;;;;;;5053003;28;20041;-63
2022/05/16 13:14:52;;;;;;;2.55;1.50;;;23.70;4.10;;;;;;5027853;28;20053;-63
2022/05/16 13:18:20;;;;;;;4.75;1.45;;;23.80;4.50;;;;;;5042384;28;20370;-63
2022/05/16 13:21:52;;;;;;;6.07;1.17;;;23.90;4.50;;;;;;5061389;28;20416;-63
2022/05/16 13:25:17;;;;;;;2.17;1.33;;;23.90;3.50;;;;;;5027004;28;20037;-63
2022/05/16 13:32:07;;;;;;;3.38;1.30;;;23.90;4.30;;;;;;5059206;28;20043;-63
2022/05/16 13:35:35;;;;;;;3.60;1.58;;;23.90;4.20;;;;;;5027328;28;20408;-62
2022/05/16 13:38:58;;;;;;;3.63;1.48;;;23.70;3.90;;;;;;5065626;28;20028;-62
2022/05/16 13:42:23;;;;;;;3.15;1.00;;;23.70;4.30;;;;;;5061543;28;20033;-63
2022/05/16 13:45:49;;;;;;;1.80;1.23;;;23.80;4.40;;;;;;5027381;28;20072;-62
2022/05/16 13:49:15;;;;;;;3.05;1.23;;;23.90;4.20;;;;;;5058895;28;20737;-63
2022/05/16 13:52:39;;;;;;;4.00;1.67;;;23.90;4.50;;;;;;5049992;28;20074;-62
2022/05/16 13:56:05;;;;;;;5.50;1.50;;;23.80;4.10;;;;;;5055906;28;20040;-63
2022/05/16 13:59:30;;;;;;;2.30;1.20;;;23.70;4.00;;;;;;5055866;28;20036;-63
2022/05/16 14:02:55;;;;;;;2.65;1.20;;;23.70;4.30;;;;;;5045592;28;20071;-62
2022/05/16 14:06:21;;;;;;;3.05;1.48;;;23.80;4.30;;;;;;5053815;28;20049;-64
2022/05/16 14:09:46;;;;;;;2.78;1.60;;;23.90;4.30;;;;;;5042827;28;20057;-62
2022/05/16 14:12:28;;;;;;;2.20;1.67;;;24.00;4.20;;;;;;5033656;28;20050;-63
2022/05/16 14:15:34;;;;;;;3.95;1.40;;;23.80;3.40;;;;;;5029740;28;20454;-62
2022/05/16 14:19:12;;;;;;;4.78;1.75;;;23.70;3.30;;;;;;5046107;28;20116;-63
2022/05/16 14:22:23;;;;;;;2.10;1.13;;;23.70;3.80;;;;;;5038210;28;20428;-63
2022/05/16 14:25:51;;;;;;;1.38;1.20;;;23.80;4.10;;;;;;5036712;28;20099;-63
2022/05/16 14:29:20;;;;;;;4.75;1.45;;;23.90;4.40;;;;;;5057559;28;20024;-63
2022/05/16 14:32:45;;;;;;;4.50;1.58;;;23.90;4.30;;;;;;5048104;28;20389;-63
2022/05/16 14:36:16;;;;;;;6.00;1.73;;;23.80;4.40;;;;;;5035985;28;20060;-63
2022/05/16 14:39:45;;;;;;;1.70;1.27;;;23.70;5.20;;;;;;5046646;28;20032;-63
2022/05/16 14:43:16;;;;;;;2.08;1.35;;;23.60;4.50;;;;;;5064315;28;20033;-63
2022/05/16 14:46:52;;;;;;;3.55;1.33;;;23.70;5.50;;;;;;5062721;28;20041;-63
2022/05/16 14:50:17;;;;;;;2.67;1.38;;;23.70;4.70;;;;;;5058167;28;20033;-63
2022/05/16 14:53:41;;;;;;;5.22;1.67;;;23.70;5.60;;;;;;5043390;28;20052;-63
2022/05/16 14:57:07;;;;;;;1.90;1.33;;;23.70;4.90;;;;;;5064567;28;20032;-62
2022/05/16 15:04:02;;;;;;;2.67;1.30;;;23.70;5.60;;;;;;5043460;28;20082;-66
2022/05/16 15:07:28;;;;;;;1.17;1.00;;;23.70;4.60;;;;;;5049040;28;20037;-62
2022/05/16 15:10:53;;;;;;;5.40;1.30;;;23.60;4.80;;;;;;5052048;28;20494;-57
2022/05/16 15:14:18;;;;;;;2.15;1.10;;;23.60;5.80;;;;;;5059715;28;20033;-58
2022/05/16 15:17:44;;;;;;;1.88;1.10;;;23.70;4.80;;;;;;5065129;28;20123;-57
2022/05/16 15:21:09;;;;;;;3.13;1.23;;;23.60;4.90;;;;;;5057272;28;20028;-58
2022/05/16 15:24:44;;;;;;;2.65;1.55;;;23.70;4.90;;;;;;5029845;28;20099;-58
2022/05/16 15:28:09;;;;;;;2.60;1.60;;;23.70;5.10;;;;;;5060496;28;20060;-57
2022/05/16 15:31:34;;;;;;;2.53;1.40;;;23.80;4.00;;;;;;5047881;28;20055;-56
2022/05/16 15:35:00;;;;;;;2.08;1.23;;;23.90;4.10;;;;;;5064036;28;20049;-54
2022/05/16 15:38:25;;;;;;;2.85;1.42;;;23.90;4.60;;;;;;5063844;28;20565;-58
2022/05/16 15:41:51;;;;;;;4.00;1.30;;;24.10;4.80;;;;;;5050590;28;20046;-58
2022/05/16 15:45:17;;;;;;;3.40;1.25;;;24.10;4.90;;;;;;5058437;28;20036;-56
2022/05/16 15:48:41;;;;;;;1.95;0.98;;;24.10;4.80;;;;;;5057876;28;20059;-57
2022/05/16 15:52:08;;;;;;;2.97;1.20;;;24.10;4.70;;;;;;5042775;28;20069;-58
2022/05/16 15:55:32;;;;;;;2.97;1.88;;;24.00;5.30;;;;;;5055489;28;20396;-55
2022/05/16 15:58:58;;;;;;;3.65;1.42;;;24.00;5.70;;;;;;5056589;28;20032;-57
2022/05/16 16:02:23;;;;;;;2.67;1.52;;;23.90;6.00;;;;;;5046099;28;20033;-57
2022/05/16 16:09:19;;;;;;;2.38;1.20;;;23.90;6.50;;;;;;5036312;28;20112;-58
2022/05/16 16:12:29;;;;;;;3.15;1.20;;;23.70;6.90;;;;;;5064366;28;20057;-57
2022/05/16 16:14:56;;;;;;;5.40;1.70;;;23.60;7.50;;;;;;5033647;28;20090;-57
2022/05/16 16:17:23;;;;;;;2.08;1.23;;;23.70;6.90;;;;;;5068720;28;20503;-59
2022/05/16 16:19:48;;;;;;;3.72;1.70;;;23.70;6.90;;;;;;5050428;28;20333;-56
2022/05/16 16:22:14;;;;;;;3.13;1.10;;;23.60;7.10;;;;;;5068886;28;20013;-59
2022/05/16 16:24:41;;;;;;;2.28;1.30;;;23.60;7.30;;;;;;5049034;28;20514;-60
2022/05/16 16:27:07;;;;;;;4.28;1.80;;;23.60;7.50;;;;;;5068550;28;20020;-60
2022/05/16 16:29:33;;;;;;;2.92;1.30;;;23.40;7.50;;;;;;5047916;28;20396;-60
2022/05/16 16:31:59;;;;;;;2.65;1.33;;;23.40;7.60;;;;;;5068701;28;20016;-60
2022/05/16 16:34:25;;;;;;;4.55;1.70;;;23.40;7.60;;;;;;5047166;28;20400;-59
2022/05/16 16:36:52;;;;;;;2.72;1.63;;;23.30;8.10;;;;;;5068032;28;20020;-58
2022/05/16 16:39:19;;;;;;;2.97;1.40;;;23.30;7.80;;;;;;5048674;28;20481;-60
2022/05/16 16:41:45;;;;;;;2.78;1.50;;;23.20;8.10;;;;;;5046636;28;20547;-60
2022/05/16 16:44:12;;;;;;;4.40;1.55;;;23.30;8.10;;;;;;5067772;28;20048;-60
2022/05/16 16:46:41;;;;;;;3.88;1.33;;;23.20;8.00;;;;;;5046871;28;20017;-59
2022/05/16 16:49:07;;;;;;;4.45;1.60;;;23.30;8.10;;;;;;5067794;28;20115;-60
2022/05/16 16:59:56;;;;;;;4.32;1.52;;;23.30;8.10;;;;;;5026943;28;20510;-60
2022/05/16 17:02:25;;;;;;;3.50;1.27;;;23.20;7.60;;;;;;5048236;28;20396;-59
2022/05/16 17:04:53;;;;;;;4.80;1.20;;;23.10;7.70;;;;;;5065520;28;20032;-59